Flight Track Log - Related Links

Times and Time Zones

All times are in EDT time to prevent confusion due to time zone crossing. See the N373LD flight status page for this flight to view local times or setup timezone preferences in your user account.

Time Position Orientation Groundspeed Altitude Reporting Facility
EDT Latitude Longitude Course Direction KTS MPH feet Rate Location/Type
Wed 10:27:56 AM 41.7667 -87.7833 270° West 117 135 1,300  Level Chicago TRACON
Wed 10:28:56 AM 41.7667 -87.8167 270° West 126 145 2,500 850 Climbing Chicago TRACON
Wed 10:29:56 AM 41.7500 -87.8833 251° West 169 194 3,000 238 Climbing Chicago TRACON
Wed 10:31:02 AM 41.7667 -87.9500 289° West 185 213 3,000 331 Level Chicago TRACON
Wed 10:32:03 AM 41.7667 -88.0167 270° West 145 167 3,700 496 Climbing Chicago TRACON
Wed 10:33:03 AM 41.7500 -88.0667 246° West 180 207 4,000 750 Climbing Chicago TRACON
Wed 10:34:03 AM 41.7667 -88.1333 289° West 164 189 5,200 947 Climbing Chicago TRACON
Wed 10:34:57 AM 41.7833 -88.1833 294° West 170 196 5,800 400 Climbing Chicago TRACON
Wed 10:36:03 AM 41.7833 -88.2500 270° West 196 226 6,000 40 Climbing Chicago TRACON
Wed 10:37:28 AM 41.7850 -88.3394 271° West 188 216 5,900 449 Descending Chicago Center
Wed 10:38:30 AM 41.7842 -88.4169 269° West 178 205 7,100 1,210 Climbing Chicago Center
Wed 10:39:32 AM 41.7836 -88.4731 269° West 156 180 8,400 1,258 Climbing Chicago Center
Wed 10:40:34 AM 41.7831 -88.5289 269° West 153 176 9,700 1,210 Climbing Chicago Center
Wed 10:41:36 AM 41.7814 -88.5864 268° West 155 178 10,900 1,152 Climbing Chicago Center
Wed 10:42:39 AM 41.7800 -88.6442 268° West 157 181 12,100 1,200 Climbing Chicago Center
Wed 10:43:41 AM 41.7786 -88.7142 268° West 158 182 13,400 871 Climbing Chicago Center
Wed 10:44:43 AM 41.7853 -88.7789 278° West 182 209 13,900 677 Climbing Chicago Center
Wed 10:45:45 AM 41.8100 -88.8419 298° West 195 224 14,800 968 Climbing Chicago Center
Wed 10:46:47 AM 41.8344 -88.8981 300° West 177 204 15,900 968 Climbing Chicago Center
Wed 10:47:49 AM 41.8581 -88.9544 299° West 175 201 16,800 919 Climbing Chicago Center
Wed 10:48:51 AM 41.8867 -89.0258 298° West 180 207 17,800 919 Climbing Chicago Center
Wed 10:49:53 AM 41.9111 -89.0842 299° West 180 207 18,700 871 Climbing Chicago Center
Wed 10:50:55 AM 41.9369 -89.1447 300° West 186 214 19,600 871 Climbing Chicago Center
Wed 10:51:57 AM 41.9619 -89.2064 299° West 189 217 20,500 871 Climbing Chicago Center
Wed 10:52:59 AM 41.9875 -89.2717 298° West 195 224 21,400 1,016 Climbing Chicago Center
Wed 10:54:01 AM 42.0172 -89.3464 298° West 191 220 22,600 968 Climbing Chicago Center
Wed 10:55:03 AM 42.0428 -89.4111 298° West 196 226 23,400 871 Climbing Chicago Center
Wed 10:56:05 AM 42.0681 -89.4767 297° West 198 228 24,400 919 Climbing Chicago Center
Wed 10:57:07 AM 42.0903 -89.5419 295° West 200 230 25,300 919 Climbing Chicago Center
Wed 10:58:09 AM 42.1242 -89.6183 301° West 204 235 26,300 823 Climbing Chicago Center
Wed 10:59:11 AM 42.1556 -89.6836 303° West 206 237 27,000 726 Climbing Chicago Center
Wed 11:00:13 AM 42.1864 -89.7486 303° West 204 235 27,800 484 Climbing Chicago Center
Wed 11:01:15 AM 42.2181 -89.8172 302° West 212 244 28,000 97 Climbing Chicago Center
Wed 11:02:17 AM 42.2519 -89.8936 301° West 233 268 28,000  Level Chicago Center
Wed 11:03:18 AM 42.2897 -89.9778 301° West 240 276 28,000  Level Chicago Center
Wed 11:04:20 AM 42.3236 -90.0553 301° West 243 280 28,000  Level Chicago Center
Wed 11:05:22 AM 42.3578 -90.1314 301° West 239 275 28,000  Level Chicago Center
Wed 11:06:24 AM 42.3975 -90.2056 306° West 243 280 28,000  Level Chicago Center
Wed 11:07:26 AM 42.4500 -90.2844 312° West 238 274 28,000  Level Chicago Center
Wed 11:08:28 AM 42.4942 -90.3461 314° West 231 266 28,000  Level Chicago Center
Wed 11:09:30 AM 42.5367 -90.4061 314° West 222 255 28,000  Level Chicago Center
Wed 11:10:32 AM 42.5808 -90.4642 316° Northwest 222 255 28,000  Level Chicago Center
Wed 11:11:33 AM 42.6236 -90.5214 315° West 219 252 28,000  Level Chicago Center
Wed 11:12:35 AM 42.6761 -90.5958 314° West 228 262 28,000  Level Chicago Center
Wed 11:13:37 AM 42.7192 -90.6586 313° West 229 264 28,000  Level Chicago Center
Wed 11:14:39 AM 42.7622 -90.7231 312° West 230 265 28,000  Level Chicago Center
Wed 11:15:41 AM 42.8089 -90.7872 315° West 239 275 28,000  Level Chicago Center
Wed 11:16:43 AM 42.8558 -90.8506 315° West 240 276 28,000  Level Chicago Center
Wed 11:17:45 AM 42.8817 -90.9481 290° West 229 264 28,000  Level Chicago Center
Wed 11:18:46 AM 42.9067 -91.0286 293° West 232 267 28,000  Level Chicago Center
Wed 11:19:48 AM 42.9328 -91.1089 294° West 234 269 28,000  Level Chicago Center
Wed 11:20:50 AM 42.9589 -91.1889 294° West 234 269 28,000  Level Chicago Center
Wed 11:21:52 AM 42.9844 -91.2700 293° West 235 270 28,000  Level Chicago Center
Wed 11:22:53 AM 43.0156 -91.3664 294° West 235 270 28,000  Level Chicago Center
Wed 11:23:55 AM 43.0472 -91.4431 299° West 236 272 28,000  Level Chicago Center
Wed 11:24:57 AM 43.0778 -91.5203 298° West 235 270 28,000  Level Chicago Center
Wed 11:25:59 AM 43.1072 -91.5981 297° West 234 269 28,000  Level Chicago Center
Wed 11:26:55 AM 43.1383 -91.6753 299° West 235 270 28,000  Level Minneapolis Center
Wed 11:27:57 AM 43.1672 -91.7542 297° West 236 272 28,000  Level Minneapolis Center
Wed 11:28:59 AM 43.1986 -91.8328 299° West 238 274 28,000  Level Minneapolis Center
Wed 11:30:00 AM 43.2294 -91.9142 297° West 241 277 28,000  Level Minneapolis Center
Wed 11:31:02 AM 43.2661 -92.0122 297° West 243 280 28,000  Level Minneapolis Center
Wed 11:32:04 AM 43.2969 -92.0908 298° West 239 275 28,000  Level Minneapolis Center
Wed 11:33:06 AM 43.3269 -92.1700 298° West 237 273 28,000  Level Minneapolis Center
Wed 11:34:08 AM 43.3586 -92.2508 298° West 241 277 28,000  Level Minneapolis Center
Wed 11:35:09 AM 43.3878 -92.3297 297° West 237 273 28,000  Level Minneapolis Center
Wed 11:36:11 AM 43.4228 -92.4250 297° West 235 270 28,000  Level Minneapolis Center
Wed 11:37:13 AM 43.4522 -92.5042 297° West 236 272 28,000  Level Minneapolis Center
Wed 11:38:15 AM 43.4817 -92.5822 297° West 233 268 28,000  Level Minneapolis Center
Wed 11:39:16 AM 43.5117 -92.6614 298° West 235 270 28,000  Level Minneapolis Center
Wed 11:40:18 AM 43.5411 -92.7383 298° West 230 265 28,000  Level Minneapolis Center
Wed 11:41:20 AM 43.5764 -92.8356 297° West 236 272 28,000  Level Minneapolis Center
Wed 11:42:22 AM 43.6056 -92.9153 297° West 236 272 28,000  Level Minneapolis Center
Wed 11:43:23 AM 43.6339 -92.9947 296° West 234 269 28,000  Level Minneapolis Center
Wed 11:44:25 AM 43.6636 -93.0728 298° West 233 268 28,000  Level Minneapolis Center
Wed 11:45:27 AM 43.6931 -93.1503 298° West 232 267 28,000  Level Minneapolis Center
Wed 11:46:29 AM 43.7272 -93.2450 297° West 230 265 28,000  Level Minneapolis Center
Wed 11:47:31 AM 43.7561 -93.3244 297° West 231 266 28,000  Level Minneapolis Center
Wed 11:48:33 AM 43.7856 -93.4050 297° West 235 270 28,000  Level Minneapolis Center
Wed 11:49:34 AM 43.8142 -93.4847 296° West 232 267 28,000  Level Minneapolis Center
Wed 11:50:36 AM 43.8425 -93.5642 296° West 231 266 28,000  Level Minneapolis Center
Wed 11:51:38 AM 43.8728 -93.6444 298° West 234 269 28,000  Level Minneapolis Center
Wed 11:52:40 AM 43.9011 -93.7256 296° West 233 268 28,000  Level Minneapolis Center
Wed 11:53:42 AM 43.9364 -93.8225 297° West 235 270 28,000  Level Minneapolis Center
Wed 11:54:44 AM 43.9653 -93.9039 296° West 235 270 28,000  Level Minneapolis Center
Wed 11:55:46 AM 43.9931 -93.9842 296° West 232 267 28,000  Level Minneapolis Center
Wed 11:56:48 AM 44.0231 -94.0658 297° West 237 273 28,000  Level Minneapolis Center
Wed 11:57:50 AM 44.0511 -94.1464 296° West 233 268 28,000  Level Minneapolis Center
Wed 11:58:52 AM 44.0803 -94.2283 296° West 236 272 28,000  Level Minneapolis Center
Wed 11:59:54 AM 44.1083 -94.3103 296° West 235 270 28,000  Level Minneapolis Center
Wed 12:00:56 PM 44.1444 -94.4089 297° West 237 273 28,000  Level Minneapolis Center
Wed 12:01:58 PM 44.1736 -94.4919 296° West 238 274 28,000  Level Minneapolis Center
Wed 12:03:00 PM 44.2017 -94.5744 295° West 237 273 28,000  Level Minneapolis Center
Wed 12:04:02 PM 44.2356 -94.6681 297° West 239 275 28,000  Level Minneapolis Center
Wed 12:05:04 PM 44.2644 -94.7494 296° West 237 273 28,000  Level Minneapolis Center
Wed 12:06:06 PM 44.2919 -94.8325 295° West 237 273 28,000  Level Minneapolis Center
Wed 12:07:08 PM 44.3214 -94.9153 296° West 239 275 28,000  Level Minneapolis Center
Wed 12:08:10 PM 44.3497 -94.9992 295° West 239 275 28,000  Level Minneapolis Center
Wed 12:09:12 PM 44.3789 -95.0825 296° West 239 275 28,000  Level Minneapolis Center
Wed 12:10:14 PM 44.4133 -95.1828 296° West 240 276 28,000  Level Minneapolis Center
Wed 12:11:16 PM 44.4408 -95.2667 295° West 239 275 28,000  Level Minneapolis Center
Wed 12:12:18 PM 44.4697 -95.3497 296° West 238 274 28,000  Level Minneapolis Center
Wed 12:13:20 PM 44.4958 -95.4333 294° West 237 273 28,000  Level Minneapolis Center
Wed 12:14:22 PM 44.5228 -95.5167 294° West 237 273 28,000  Level Minneapolis Center
Wed 12:15:24 PM 44.5503 -95.5994 295° West 236 272 28,000  Level Minneapolis Center
Wed 12:16:26 PM 44.5819 -95.6997 294° West 235 270 28,000  Level Minneapolis Center
Wed 12:17:28 PM 44.6094 -95.7831 295° West 237 273 28,000  Level Minneapolis Center
Wed 12:18:30 PM 44.6367 -95.8661 295° West 236 272 28,000  Level Minneapolis Center
Wed 12:19:32 PM 44.6631 -95.9503 294° West 237 273 28,000  Level Minneapolis Center
Wed 12:20:35 PM 44.6903 -96.0331 295° West 236 272 28,000  Level Minneapolis Center
Wed 12:21:37 PM 44.7214 -96.1336 294° West 236 272 28,000  Level Minneapolis Center
Wed 12:22:39 PM 44.7475 -96.2167 294° West 235 270 28,000  Level Minneapolis Center
Wed 12:23:41 PM 44.7739 -96.2986 294° West 232 267 28,000  Level Minneapolis Center
Wed 12:24:42 PM 44.7994 -96.3814 294° West 233 268 28,000  Level Minneapolis Center
Wed 12:25:44 PM 44.8253 -96.4628 294° West 230 265 28,000 -339 Level Minneapolis Center
Wed 12:26:46 PM 44.8581 -96.5664 294° West 243 280 27,300 -677 Descending Minneapolis Center
Wed 12:27:48 PM 44.8864 -96.6589 293° West 256 295 26,600 -677 Descending Minneapolis Center
Wed 12:28:50 PM 44.9144 -96.7511 293° West 258 297 25,900 -677 Descending Minneapolis Center
Wed 12:29:52 PM 44.9436 -96.8433 294° West 258 297 25,200 -677 Descending Minneapolis Center
Wed 12:30:54 PM 44.9711 -96.9303 294° West 248 285 24,500 -677 Descending Minneapolis Center
Wed 12:31:56 PM 44.9975 -97.0169 293° West 243 280 23,800 -677 Descending Minneapolis Center
Wed 12:32:58 PM 45.0297 -97.1208 294° West 241 277 23,100 -387 Descending Minneapolis Center
Wed 12:34:00 PM 45.0553 -97.2047 293° West 235 270 23,000 -48 Descending Minneapolis Center
Wed 12:35:02 PM 45.0794 -97.2867 293° West 229 264 23,000  Level Minneapolis Center
Wed 12:36:04 PM 45.1064 -97.3703 295° West 232 267 23,000  Level Minneapolis Center
Wed 12:37:06 PM 45.1325 -97.4553 294° West 237 273 23,000 -288 Level Minneapolis Center
Wed 12:38:09 PM 45.1586 -97.5408 293° West 237 273 22,400 -1,344 Descending Minneapolis Center
Wed 12:39:11 PM 45.1894 -97.6422 293° West 236 272 20,200 -1,887 Descending Minneapolis Center
Wed 12:40:13 PM 45.2139 -97.7244 293° West 230 265 18,500 -1,839 Descending Minneapolis Center
Wed 12:41:15 PM 45.2364 -97.8039 292° West 221 254 16,400 -1,887 Descending Minneapolis Center
Wed 12:42:17 PM 45.2603 -97.8831 293° West 219 252 14,600 -1,742 Descending Minneapolis Center
Wed 12:43:19 PM 45.2831 -97.9619 292° West 218 251 12,800 -1,742 Descending Minneapolis Center
Wed 12:44:21 PM 45.3042 -98.0328 293° West 200 230 11,000 -1,839 Descending Minneapolis Center
Wed 12:45:23 PM 45.3250 -98.1153 290° West 212 244 9,000 -1,839 Descending Minneapolis Center
Wed 12:46:25 PM 45.3164 -98.1839 260° West 182 209 7,200 -1,694 Descending Minneapolis Center
Wed 12:47:27 PM 45.3311 -98.2461 289° West 185 213 5,500 -1,742 Descending Minneapolis Center
Wed 12:48:29 PM 45.3767 -98.3108 315° West 198 228 3,600 -1,161 Descending Minneapolis Center
Wed 12:49:31 PM 45.4053 -98.3533 314° West 191 220 3,100 -484 Descending Minneapolis Center
Wed 12:51:00 PM 45.4333 -98.4167 311° West  Level FlightAware Approximate
Wed 12:58:00 PM 45.5307 -99.0041 311° West  Level Estimated
Wed 12:59:00 PM 45.5443 -99.0882 311° West  Level Estimated
Wed 01:00:00 PM 45.5579 -99.1724 311° West  Level Estimated
Wed 01:01:00 PM 45.5715 -99.2565 311° West  Level Estimated
Wed 01:02:00 PM 45.5850 -99.3407 311° West  Level Estimated
Wed 01:03:00 PM 45.5984 -99.4250 311° West  Level Estimated
Wed 01:04:00 PM 45.6117 -99.5093 311° West  Level Estimated
Wed 01:05:00 PM 45.6250 -99.5936 311° West  Level Estimated
Wed 01:06:00 PM 45.6383 -99.6780 311° West  Level Estimated
Wed 01:07:00 PM 45.6514 -99.7624 311° West  Level Estimated
Wed 01:08:00 PM 45.6645 -99.8468 311° West  Level Estimated
Wed 01:09:00 PM 45.6776 -99.9313 311° West  Level Estimated
Wed 01:10:00 PM 45.6906 -100.0159 311° West  Level Estimated
Wed 01:11:00 PM 45.7035 -100.1004 311° West  Level Estimated
Wed 01:12:00 PM 45.7163 -100.1850 311° West  Level Estimated
Wed 01:13:00 PM 45.7291 -100.2697 311° West  Level Estimated
Wed 01:14:00 PM 45.7419 -100.3544 311° West  Level Estimated
Wed 01:15:00 PM 45.7545 -100.4391 311° West  Level Estimated
Wed 01:16:00 PM 45.7671 -100.5239 311° West  Level Estimated
Wed 01:17:00 PM 45.7797 -100.6087 311° West  Level Estimated
Wed 01:18:00 PM 45.7921 -100.6935 311° West  Level Estimated
Wed 01:19:00 PM 45.8046 -100.7784 311° West  Level Estimated
Wed 01:20:00 PM 45.8169 -100.8633 311° West  Level Estimated
Wed 01:21:00 PM 45.8292 -100.9482 311° West  Level Estimated
Wed 01:22:00 PM 45.8414 -101.0332 311° West  Level Estimated
Wed 01:23:00 PM 45.8536 -101.1183 311° West  Level Estimated
Wed 01:24:00 PM 45.8657 -101.2033 311° West  Level Estimated
Wed 01:25:00 PM 45.8778 -101.2884 311° West  Level Estimated
Wed 01:26:00 PM 45.8897 -101.3736 311° West  Level Estimated
Wed 01:27:00 PM 45.9016 -101.4587 311° West  Level Estimated
Wed 01:28:00 PM 45.9135 -101.5439 311° West  Level Estimated
Wed 01:29:00 PM 45.9253 -101.6292 311° West  Level Estimated
Wed 01:30:00 PM 45.9370 -101.7145 311° West  Level Estimated
Wed 01:31:00 PM 45.9487 -101.7998 311° West  Level Estimated
Wed 01:32:00 PM 45.9603 -101.8851 311° West  Level Estimated
Wed 01:33:00 PM 45.9718 -101.9705 311° West  Level Estimated
Wed 01:34:00 PM 45.9833 -102.0560 311° West  Level Estimated
Wed 01:35:00 PM 45.9947 -102.1414 311° West  Level Estimated
Wed 01:36:00 PM 46.0060 -102.2269 311° West  Level Estimated
Wed 01:37:00 PM 46.0173 -102.3125 311° West  Level Estimated
Wed 01:38:00 PM 46.0285 -102.3980 311° West  Level Estimated
Wed 01:39:00 PM 46.0396 -102.4836 311° West  Level Estimated
Wed 01:40:00 PM 46.0507 -102.5693 311° West  Level Estimated
Wed 01:41:00 PM 46.0617 -102.6549 311° West  Level Estimated
Wed 01:42:00 PM 46.0727 -102.7406 311° West  Level Estimated
Wed 01:43:00 PM 46.0836 -102.8264 311° West  Level Estimated
Wed 01:44:00 PM 46.0944 -102.9121 311° West  Level Estimated
Wed 01:45:00 PM 46.1052 -102.9980 311° West  Level Estimated
Wed 01:46:00 PM 46.1159 -103.0838 311° West  Level Estimated
Wed 01:47:00 PM 46.1265 -103.1697 311° West  Level Estimated
Wed 01:48:00 PM 46.1371 -103.2556 311° West  Level Estimated
Wed 01:49:00 PM 46.1476 -103.3415 311° West  Level Estimated
Wed 01:50:00 PM 46.1581 -103.4275 311° West  Level Estimated
Wed 01:51:00 PM 46.1684 -103.5135 311° West  Level Estimated
Wed 01:52:00 PM 46.1787 -103.5995 311° West  Level Estimated
Wed 01:53:00 PM 46.1890 -103.6856 311° West  Level Estimated
Wed 01:54:00 PM 46.1992 -103.7717 311° West  Level Estimated
Wed 01:55:00 PM 46.2093 -103.8578 311° West  Level Estimated
Wed 01:56:00 PM 46.2194 -103.9440 311° West  Level Estimated
Wed 01:57:00 PM 46.2294 -104.0302 311° West  Level Estimated
Wed 01:58:00 PM 46.2393 -104.1164 311° West  Level Estimated
Wed 01:59:00 PM 46.2491 -104.2027 311° West  Level Estimated
Wed 02:00:00 PM 46.2589 -104.2889 311° West  Level Estimated
Wed 02:01:00 PM 46.2687 -104.3753 311° West  Level Estimated
Wed 02:02:00 PM 46.2783 -104.4616 311° West  Level Estimated
Wed 02:03:00 PM 46.2879 -104.5480 311° West  Level Estimated
Wed 02:04:00 PM 46.2975 -104.6344 311° West  Level Estimated
Wed 02:05:00 PM 46.3069 -104.7208 311° West  Level Estimated
Wed 02:06:00 PM 46.3164 -104.8073 311° West  Level Estimated
Wed 02:07:00 PM 46.3257 -104.8938 311° West  Level Estimated
Wed 02:08:00 PM 46.3350 -104.9803 311° West  Level Estimated
Wed 02:09:00 PM 46.3442 -105.0669 311° West  Level Estimated
Wed 02:10:00 PM 46.3533 -105.1535 311° West  Level Estimated
Wed 02:11:00 PM 46.3624 -105.2401 311° West  Level Estimated
Wed 02:12:00 PM 46.3714 -105.3268 311° West  Level Estimated
Wed 02:13:00 PM 46.3804 -105.4134 311° West  Level Estimated
Wed 02:14:00 PM 46.3892 -105.5001 311° West  Level Estimated

Login

Don't have an account? Register now (free) for customized features, flight alerts, and more!